createdAt,value
2019-02-23T19:02:32.688Z,61.70
2019-02-23T19:04:59.967Z,61.00
2019-02-23T19:07:27.201Z,61.20
2019-02-23T19:09:54.282Z,62.40
2019-02-23T19:12:21.525Z,60.00
2019-02-23T19:14:48.554Z,63.80
2019-02-23T19:17:15.589Z,61.30
2019-02-23T19:19:42.640Z,58.50
2019-02-23T19:22:11.019Z,56.10
2019-02-23T19:24:38.352Z,55.80
2019-02-23T19:27:06.241Z,54.80
2019-02-23T19:29:33.316Z,56.30
2019-02-23T19:32:00.445Z,55.00
2019-02-23T19:34:28.103Z,54.20
2019-02-23T19:36:55.150Z,53.60
2019-02-23T19:39:22.450Z,53.50
2019-02-23T19:41:50.014Z,53.80
2019-02-23T19:44:17.197Z,53.30
2019-02-23T19:46:47.819Z,53.50
2019-02-23T19:49:14.962Z,53.50
2019-02-23T19:51:42.214Z,53.50
2019-02-23T19:54:09.492Z,53.40
2019-02-23T19:56:36.964Z,53.00
2019-02-23T19:59:04.104Z,53.10
2019-02-23T20:01:31.490Z,54.10
2019-02-23T20:03:58.684Z,54.40
2019-02-23T20:06:25.928Z,54.40
2019-02-23T20:08:53.529Z,54.80
2019-02-23T20:11:21.766Z,54.80
2019-02-23T20:13:53.230Z,54.80
2019-02-23T20:16:21.183Z,55.30
2019-02-23T20:18:48.250Z,55.20
2019-02-23T20:21:16.181Z,54.90
2019-02-23T20:23:43.567Z,54.90
2019-02-23T20:26:10.622Z,54.60
2019-02-23T20:28:38.880Z,54.30
2019-02-23T20:31:06.219Z,54.60
2019-02-23T20:33:33.591Z,54.50
2019-02-23T20:36:01.965Z,54.70
2019-02-23T20:38:29.618Z,54.90
2019-02-23T20:40:56.767Z,54.20
2019-02-23T20:43:27.080Z,54.80
2019-02-23T20:45:54.442Z,55.10
2019-02-23T20:48:21.936Z,54.80
2019-02-23T20:50:49.253Z,54.70
2019-02-23T20:53:16.721Z,54.40
2019-02-23T20:55:43.950Z,54.20
2019-02-23T20:58:11.204Z,54.80
2019-02-23T21:00:38.679Z,54.10
2019-02-23T21:03:06.347Z,54.10
2019-02-23T21:05:33.565Z,54.30
2019-02-23T21:08:00.798Z,53.80
2019-02-23T21:10:28.409Z,53.70
2019-02-23T21:12:55.900Z,53.90
2019-02-23T21:15:23.097Z,54.20
2019-02-23T21:17:50.891Z,54.60
2019-02-23T21:20:18.224Z,53.50
2019-02-23T21:22:45.996Z,53.30
2019-02-23T21:25:13.763Z,53.70
2019-02-23T21:27:41.159Z,53.50
2019-02-23T21:30:09.588Z,53.80
2019-02-23T21:32:36.977Z,53.60
2019-02-23T21:35:05.335Z,54.20
2019-02-23T21:37:33.790Z,54.10
2019-02-23T21:40:01.002Z,53.40
2019-02-23T21:42:30.929Z,53.60
2019-02-23T21:44:58.374Z,53.70
2019-02-23T21:47:26.075Z,53.40
2019-02-23T21:49:53.712Z,53.50
2019-02-23T21:52:20.876Z,53.80
2019-02-23T21:54:48.228Z,53.70
2019-02-23T21:57:21.942Z,54.20
2019-02-23T21:59:45.780Z,54.70
2019-02-23T22:02:13.115Z,54.80
2019-02-23T22:04:40.165Z,55.00
2019-02-23T22:07:08.065Z,54.80
2019-02-23T22:09:36.040Z,54.80
2019-02-23T22:12:03.178Z,54.40
2019-02-23T22:14:30.837Z,54.40
2019-02-23T22:16:57.865Z,55.10
2019-02-23T22:19:25.261Z,56.20
2019-02-23T22:21:52.877Z,55.40
2019-02-23T22:24:20.474Z,54.90
2019-02-23T22:26:48.156Z,55.20
2019-02-23T22:29:15.542Z,55.70
2019-02-23T22:31:44.002Z,55.60
2019-02-23T22:34:11.637Z,55.40
2019-02-23T22:36:39.046Z,56.10
2019-02-23T22:39:07.251Z,55.50
2019-02-23T22:41:35.199Z,55.00
2019-02-23T22:44:02.348Z,54.70
2019-02-23T22:46:30.587Z,55.10
2019-02-23T22:48:57.993Z,54.50
2019-02-23T22:51:25.392Z,55.00
2019-02-23T22:53:53.323Z,54.40
2019-02-23T22:56:20.554Z,54.50
2019-02-23T22:58:47.758Z,54.70
2019-02-23T23:01:15.969Z,53.90
2019-02-23T23:03:44.920Z,53.90
2019-02-23T23:06:12.504Z,53.20
2019-02-23T23:08:40.034Z,52.90
2019-02-23T23:11:07.638Z,53.00
2019-02-23T23:13:35.158Z,52.70
2019-02-23T23:19:49.117Z,53.60
2019-02-23T23:22:16.917Z,52.50
2019-02-23T23:24:44.882Z,52.90
2019-02-23T23:27:12.719Z,52.00
2019-02-23T23:29:40.420Z,55.20
2019-02-23T23:32:07.558Z,54.10
2019-02-23T23:34:35.802Z,53.50
2019-02-23T23:37:03.153Z,53.50
2019-02-23T23:39:33.592Z,54.40
2019-02-23T23:42:00.820Z,54.10
2019-02-23T23:44:28.378Z,55.50
2019-02-23T23:46:56.103Z,54.60
2019-02-23T23:49:23.287Z,54.20
2019-02-23T23:51:50.748Z,54.60
2019-02-23T23:54:18.246Z,54.40
2019-02-23T23:56:46.003Z,54.90
2019-02-23T23:59:13.527Z,55.20
